Time;durP1;ratioP1;P1;durP2;ratioP2;P2;SDS_P1;SDS_P2;PMS_P1;PMS_P2;Temp;Humidity;BMP_temperature;BMP_pressure;BME280_temperature;BME280_humidity;BME280_pressure;Samples;Min_cycle;Max_cycle;Signal;HPM_P1;HPM_P2
2023/07/19 00:01:55;;;;;;;11.43;4.30;;;22.70;83.70;;;;;;5053885;28;20498;-70
2023/07/19 00:04:22;;;;;;;15.37;4.47;;;22.60;83.30;;;;;;5053171;28;20517;-71
2023/07/19 00:06:49;;;;;;;12.10;4.20;;;22.60;83.40;;;;;;5053806;28;20471;-70
2023/07/19 00:09:17;;;;;;;11.63;4.00;;;22.50;83.80;;;;;;5053315;28;20514;-71
2023/07/19 00:11:47;;;;;;;6.57;3.20;;;22.50;83.80;;;;;;5052944;28;20527;-70
2023/07/19 00:14:17;;;;;;;13.00;4.83;;;22.20;84.60;;;;;;5052228;28;20960;-71
2023/07/19 00:16:44;;;;;;;8.93;5.00;;;22.10;84.80;;;;;;5053123;28;20457;-71
2023/07/19 00:19:11;;;;;;;13.07;3.93;;;22.10;85.20;;;;;;5053451;28;20439;-70
2023/07/19 00:21:39;;;;;;;11.13;5.83;;;22.10;85.40;;;;;;5053321;28;20450;-71
2023/07/19 00:24:06;;;;;;;11.23;4.33;;;22.20;85.60;;;;;;5052675;28;20471;-70
2023/07/19 00:26:35;;;;;;;9.60;4.27;;;22.20;85.80;;;;;;5053449;28;20540;-70
2023/07/19 00:29:02;;;;;;;6.97;3.40;;;22.20;85.50;;;;;;5053391;28;20466;-71
2023/07/19 00:31:31;;;;;;;11.00;4.27;;;22.20;85.60;;;;;;5053366;28;20528;-71
2023/07/19 00:33:58;;;;;;;13.43;4.30;;;22.10;86.00;;;;;;5053302;28;20436;-70
2023/07/19 00:36:25;;;;;;;11.30;4.80;;;21.90;86.90;;;;;;5053575;28;20478;-71
2023/07/19 00:38:52;;;;;;;11.63;4.80;;;21.80;87.90;;;;;;5053175;28;20518;-70
2023/07/19 00:41:20;;;;;;;11.80;4.80;;;21.80;88.30;;;;;;5053054;28;20443;-71
2023/07/19 00:43:49;;;;;;;12.60;4.40;;;21.80;88.70;;;;;;5052963;28;20443;-72
2023/07/19 00:46:16;;;;;;;9.70;4.27;;;21.80;89.00;;;;;;5053340;28;20794;-71
2023/07/19 00:48:44;;;;;;;10.13;4.30;;;21.70;89.30;;;;;;5053395;28;20797;-71
2023/07/19 00:51:12;;;;;;;8.73;4.40;;;21.70;90.00;;;;;;5052858;28;20443;-70
2023/07/19 00:53:45;;;;;;;12.03;4.67;;;21.60;90.30;;;;;;5052432;28;20954;-70
2023/07/19 00:56:15;;;;;;;9.03;4.13;;;21.70;90.30;;;;;;5053289;28;20431;-71
2023/07/19 00:58:43;;;;;;;7.53;4.33;;;21.70;90.50;;;;;;5053095;28;20577;-70
2023/07/19 01:01:13;;;;;;;14.50;4.93;;;21.60;90.40;;;;;;5052448;28;20459;-71
2023/07/19 01:03:42;;;;;;;11.33;4.60;;;21.40;91.00;;;;;;5052912;28;20522;-70
2023/07/19 01:06:11;;;;;;;12.83;4.83;;;21.30;91.30;;;;;;5053234;28;20439;-70
2023/07/19 01:08:39;;;;;;;14.13;5.57;;;21.40;91.20;;;;;;5053034;28;20475;-70
2023/07/19 01:11:06;;;;;;;6.53;3.70;;;21.30;91.60;;;;;;5052426;28;20449;-70
2023/07/19 01:13:33;;;;;;;10.40;4.97;;;21.20;91.90;;;;;;5052736;28;20485;-71
2023/07/19 01:16:01;;;;;;;9.07;5.07;;;21.30;92.00;;;;;;5052836;28;20941;-70
2023/07/19 01:18:30;;;;;;;7.37;4.10;;;21.40;92.00;;;;;;5052822;28;20443;-70
2023/07/19 01:20:58;;;;;;;8.37;4.23;;;21.50;91.90;;;;;;5052206;28;20439;-71
2023/07/19 01:23:27;;;;;;;8.87;4.63;;;21.50;91.60;;;;;;5052808;28;20476;-71
2023/07/19 01:25:55;;;;;;;11.70;4.37;;;21.50;91.50;;;;;;5055497;28;20500;-70
2023/07/19 01:28:25;;;;;;;11.87;5.27;;;21.50;91.80;;;;;;5056305;28;20508;-70
2023/07/19 01:30:52;;;;;;;11.13;4.87;;;21.50;91.70;;;;;;5056774;28;20442;-70
2023/07/19 01:33:20;;;;;;;7.43;5.07;;;21.50;91.70;;;;;;5055437;28;20817;-70
2023/07/19 01:35:47;;;;;;;9.93;4.83;;;21.50;91.80;;;;;;5055774;28;20447;-71
2023/07/19 01:38:14;;;;;;;10.00;4.50;;;21.50;91.80;;;;;;5056051;28;20948;-70
2023/07/19 01:40:43;;;;;;;11.90;6.10;;;21.20;92.50;;;;;;5056474;28;20437;-70
2023/07/19 01:43:11;;;;;;;9.10;4.50;;;21.00;93.30;;;;;;5056038;28;20471;-70
2023/07/19 01:45:38;;;;;;;9.87;4.67;;;20.90;93.70;;;;;;5055692;28;20443;-70
2023/07/19 01:48:06;;;;;;;9.90;5.00;;;20.70;94.00;;;;;;5056320;28;20471;-70
2023/07/19 01:50:33;;;;;;;11.77;5.00;;;20.70;94.30;;;;;;5056083;28;20446;-70
2023/07/19 01:53:00;;;;;;;10.20;5.40;;;20.80;94.30;;;;;;5055879;28;20806;-70
2023/07/19 01:55:27;;;;;;;9.97;5.63;;;20.90;94.30;;;;;;5056253;28;20444;-71
2023/07/19 01:57:56;;;;;;;7.60;4.60;;;20.90;94.10;;;;;;5055831;28;20486;-71
2023/07/19 02:00:25;;;;;;;10.23;4.70;;;20.90;94.20;;;;;;5055754;28;20454;-70
2023/07/19 02:02:54;;;;;;;11.33;6.20;;;20.90;94.00;;;;;;5055514;28;20847;-70
2023/07/19 02:05:23;;;;;;;8.80;5.07;;;21.00;94.10;;;;;;5054524;28;20439;-71
2023/07/19 02:07:56;;;;;;;14.53;4.90;;;21.00;93.60;;;;;;5055954;28;20524;-70
2023/07/19 02:10:25;;;;;;;9.40;4.47;;;20.90;93.70;;;;;;5056173;28;20478;-70
2023/07/19 02:12:56;;;;;;;9.63;4.80;;;20.80;93.80;;;;;;5055091;28;20439;-75
2023/07/19 02:15:25;;;;;;;10.30;5.00;;;20.90;93.80;;;;;;5055872;28;20431;-71
2023/07/19 02:17:53;;;;;;;12.63;6.23;;;20.90;93.80;;;;;;5055873;28;20446;-71
2023/07/19 02:20:31;;;;;;;10.43;6.40;;;21.00;93.70;;;;;;5054913;28;20447;-71
2023/07/19 02:22:58;;;;;;;11.27;5.30;;;20.90;94.00;;;;;;5055521;28;20514;-71
2023/07/19 02:25:26;;;;;;;14.90;5.63;;;20.80;94.40;;;;;;5055838;28;20790;-70
2023/07/19 02:27:53;;;;;;;10.40;5.17;;;20.90;94.40;;;;;;5055273;28;20961;-71
2023/07/19 02:30:22;;;;;;;10.40;6.07;;;20.90;94.30;;;;;;5054767;28;20494;-71
2023/07/19 02:32:49;;;;;;;7.20;4.40;;;21.00;94.10;;;;;;5054131;28;20523;-70
2023/07/19 02:35:17;;;;;;;9.70;5.20;;;21.10;94.10;;;;;;5054809;28;20968;-71
2023/07/19 02:37:44;;;;;;;9.53;4.80;;;21.10;94.00;;;;;;5054962;28;20832;-70
2023/07/19 02:40:12;;;;;;;10.97;4.93;;;21.10;94.10;;;;;;5055442;28;20444;-70
2023/07/19 02:42:39;;;;;;;10.37;4.77;;;21.10;94.10;;;;;;5055118;28;20443;-71
2023/07/19 02:45:07;;;;;;;8.17;5.23;;;21.10;94.10;;;;;;5054985;28;20526;-72
2023/07/19 02:47:36;;;;;;;10.83;5.30;;;21.20;94.10;;;;;;5055261;28;20479;-70
2023/07/19 02:50:04;;;;;;;11.50;5.53;;;21.20;94.10;;;;;;5055147;28;20547;-70
2023/07/19 02:52:31;;;;;;;10.80;5.87;;;21.20;93.90;;;;;;5055282;28;20904;-70
2023/07/19 02:54:58;;;;;;;9.10;5.50;;;21.30;93.70;;;;;;5053779;28;20446;-71
2023/07/19 02:57:25;;;;;;;12.43;6.13;;;21.20;93.80;;;;;;5055253;28;20451;-70
2023/07/19 02:59:53;;;;;;;13.30;6.10;;;21.20;93.90;;;;;;5054723;28;20968;-70
2023/07/19 03:02:20;;;;;;;17.13;6.87;;;21.00;94.60;;;;;;5055010;28;20855;-70
2023/07/19 03:04:49;;;;;;;13.67;6.70;;;20.80;95.20;;;;;;5054428;28;20438;-71
2023/07/19 03:07:17;;;;;;;9.10;5.27;;;20.80;95.40;;;;;;5054879;28;20439;-71
2023/07/19 03:09:44;;;;;;;12.30;6.33;;;20.80;95.40;;;;;;5054548;28;20471;-71
2023/07/19 03:12:11;;;;;;;10.70;5.77;;;20.90;95.50;;;;;;5054501;28;20437;-70
2023/07/19 03:14:39;;;;;;;7.40;5.03;;;20.90;95.50;;;;;;5053848;28;20500;-70
2023/07/19 03:17:06;;;;;;;11.77;5.77;;;21.00;95.40;;;;;;5054193;28;20447;-72
2023/07/19 03:19:35;;;;;;;14.00;7.10;;;21.10;95.40;;;;;;5054693;28;20850;-70
2023/07/19 03:22:04;;;;;;;11.80;5.60;;;21.10;95.10;;;;;;5054310;28;20977;-71
2023/07/19 03:24:31;;;;;;;14.10;5.77;;;21.20;95.00;;;;;;5054176;28;20453;-71
2023/07/19 03:26:58;;;;;;;12.43;5.57;;;21.20;95.00;;;;;;5054274;28;21067;-71
2023/07/19 03:29:25;;;;;;;11.97;4.70;;;21.20;94.90;;;;;;5054336;28;20499;-70
2023/07/19 03:31:52;;;;;;;8.50;5.30;;;21.20;94.90;;;;;;5054458;28;20439;-71
2023/07/19 03:34:19;;;;;;;9.50;6.37;;;21.20;95.00;;;;;;5054069;28;20435;-71
2023/07/19 03:36:47;;;;;;;15.43;5.20;;;21.20;95.10;;;;;;5054355;28;20505;-70
2023/07/19 03:39:16;;;;;;;9.37;5.30;;;21.10;95.60;;;;;;5054285;28;20447;-70
2023/07/19 03:41:43;;;;;;;7.50;5.27;;;21.00;95.60;;;;;;5053107;28;20923;-71
2023/07/19 03:44:10;;;;;;;10.07;5.80;;;21.10;95.70;;;;;;5053697;28;20443;-71
2023/07/19 03:46:37;;;;;;;8.50;5.77;;;21.10;95.70;;;;;;5054116;28;20467;-71
2023/07/19 03:49:04;;;;;;;10.10;6.13;;;21.20;95.60;;;;;;5053166;28;20475;-71
2023/07/19 03:51:32;;;;;;;11.90;6.27;;;21.10;95.70;;;;;;5053753;28;20527;-71
2023/07/19 03:53:59;;;;;;;12.83;6.33;;;21.20;95.70;;;;;;5053795;28;20445;-71
2023/07/19 03:56:27;;;;;;;11.90;5.67;;;21.30;95.70;;;;;;5054123;28;20441;-70
2023/07/19 03:58:54;;;;;;;12.50;6.13;;;21.30;95.60;;;;;;5053663;28;20475;-71
2023/07/19 04:01:21;;;;;;;8.90;6.10;;;21.30;95.50;;;;;;5053566;28;20444;-70
2023/07/19 04:03:49;;;;;;;16.47;5.60;;;21.40;95.50;;;;;;5053842;28;20783;-70
2023/07/19 04:06:16;;;;;;;11.57;5.20;;;21.50;95.40;;;;;;5053593;28;20428;-70
2023/07/19 04:08:43;;;;;;;9.30;5.60;;;21.40;95.50;;;;;;5053201;28;20498;-71
2023/07/19 04:11:10;;;;;;;8.70;5.43;;;21.50;95.50;;;;;;5053656;28;20426;-70
2023/07/19 04:13:39;;;;;;;9.30;5.57;;;21.60;95.70;;;;;;5053680;28;20462;-70
2023/07/19 04:16:06;;;;;;;9.53;5.90;;;21.60;95.50;;;;;;5053181;28;20830;-70
2023/07/19 04:18:33;;;;;;;9.20;5.83;;;21.50;95.70;;;;;;5053441;28;20441;-71
2023/07/19 04:21:02;;;;;;;10.17;5.63;;;21.30;96.20;;;;;;5053674;28;20485;-70
2023/07/19 04:23:31;;;;;;;11.33;6.20;;;21.30;96.20;;;;;;5053411;28;20448;-70
2023/07/19 04:25:58;;;;;;;9.73;6.47;;;21.30;96.40;;;;;;5053041;28;20440;-70
2023/07/19 04:28:25;;;;;;;9.53;5.77;;;21.30;96.70;;;;;;5053512;28;20824;-70
2023/07/19 04:30:54;;;;;;;12.13;5.80;;;21.30;97.00;;;;;;5053311;28;20446;-70
2023/07/19 04:33:21;;;;;;;10.07;6.60;;;21.20;97.40;;;;;;5053160;28;20917;-71
2023/07/19 04:35:49;;;;;;;10.70;5.90;;;21.20;97.50;;;;;;5053255;28;20446;-70
2023/07/19 04:38:16;;;;;;;9.13;6.23;;;21.20;97.90;;;;;;5052768;28;20963;-70
2023/07/19 04:40:43;;;;;;;11.60;6.13;;;21.30;97.90;;;;;;5053538;28;20490;-71
2023/07/19 04:43:10;;;;;;;8.93;6.10;;;21.30;97.80;;;;;;5053120;28;20450;-71
2023/07/19 04:45:37;;;;;;;8.30;5.90;;;21.30;97.90;;;;;;5053150;28;20440;-72
2023/07/19 04:48:06;;;;;;;8.33;5.57;;;21.40;98.10;;;;;;5053252;28;20525;-70
2023/07/19 04:50:33;;;;;;;8.57;5.80;;;21.40;98.20;;;;;;5053115;28;20436;-71
2023/07/19 04:53:01;;;;;;;10.83;5.50;;;21.50;98.20;;;;;;5053302;28;20497;-71
2023/07/19 04:55:28;;;;;;;7.10;5.73;;;21.50;98.30;;;;;;5053400;28;20456;-70
2023/07/19 04:57:55;;;;;;;8.07;5.50;;;21.40;98.60;;;;;;5053046;28;20539;-71
2023/07/19 05:00:24;;;;;;;15.70;5.67;;;21.30;99.00;;;;;;5055377;28;20846;-70
2023/07/19 05:02:51;;;;;;;8.30;4.60;;;21.40;99.00;;;;;;5057281;28;20446;-70
2023/07/19 05:05:20;;;;;;;7.17;4.87;;;21.30;98.80;;;;;;5055080;28;20889;-71
2023/07/19 05:07:47;;;;;;;10.10;6.57;;;21.30;98.70;;;;;;5055770;28;20443;-72
2023/07/19 05:10:14;;;;;;;9.40;6.17;;;21.20;99.10;;;;;;5056304;28;20467;-71
2023/07/19 05:12:41;;;;;;;7.47;5.03;;;21.20;99.70;;;;;;5056602;28;20451;-71
2023/07/19 05:15:09;;;;;;;9.43;6.20;;;21.20;99.80;;;;;;5056533;28;20446;-71
2023/07/19 05:17:36;;;;;;;9.63;6.63;;;21.30;99.90;;;;;;5055746;28;20500;-71
2023/07/19 05:20:05;;;;;;;12.83;8.13;;;21.30;99.70;;;;;;5056077;28;20448;-71
2023/07/19 05:22:34;;;;;;;8.93;6.20;;;21.40;99.70;;;;;;5056407;28;20444;-71
2023/07/19 05:25:01;;;;;;;7.63;5.70;;;21.50;99.60;;;;;;5055153;28;20432;-72
2023/07/19 05:27:28;;;;;;;8.13;5.47;;;21.60;99.40;;;;;;5055843;28;20439;-71
2023/07/19 05:29:55;;;;;;;12.30;6.17;;;21.70;99.40;;;;;;5056095;28;20476;-71
2023/07/19 05:32:22;;;;;;;6.93;5.50;;;21.80;99.70;;;;;;5054639;28;20487;-70
2023/07/19 05:34:50;;;;;;;8.20;5.30;;;21.90;99.40;;;;;;5055186;28;20450;-72
2023/07/19 05:37:17;;;;;;;11.87;6.30;;;22.00;99.60;;;;;;5055752;28;20476;-70
2023/07/19 05:39:47;;;;;;;12.00;7.10;;;22.00;99.80;;;;;;5055069;28;20938;-70
2023/07/19 05:42:14;;;;;;;14.63;8.37;;;22.00;99.90;;;;;;5055963;28;20438;-70
2023/07/19 05:44:41;;;;;;;12.90;6.17;;;22.00;99.90;;;;;;5055404;28;20436;-70
2023/07/19 05:47:09;;;;;;;8.63;6.60;;;22.00;99.90;;;;;;5055524;28;20447;-70
2023/07/19 05:49:36;;;;;;;9.23;7.30;;;22.00;99.90;;;;;;5055780;28;20489;-70
2023/07/19 05:52:03;;;;;;;10.50;6.73;;;22.00;99.90;;;;;;5055557;28;20444;-70
2023/07/19 05:54:31;;;;;;;11.73;6.40;;;22.00;99.90;;;;;;5054351;28;20508;-70
2023/07/19 05:56:59;;;;;;;10.83;7.13;;;22.00;99.90;;;;;;5055262;28;20445;-70
2023/07/19 05:59:26;;;;;;;13.80;8.57;;;21.90;99.90;;;;;;5055180;28;20516;-70
2023/07/19 06:01:53;;;;;;;12.73;7.07;;;21.80;99.90;;;;;;5055650;28;20526;-70
2023/07/19 06:04:21;;;;;;;14.20;6.73;;;21.80;99.90;;;;;;5055520;28;20850;-70
2023/07/19 06:06:49;;;;;;;11.23;6.83;;;21.90;99.90;;;;;;5055110;28;20918;-70
2023/07/19 06:09:17;;;;;;;11.83;6.60;;;21.90;99.90;;;;;;5054807;28;20497;-70
2023/07/19 06:11:45;;;;;;;14.80;7.93;;;22.00;99.90;;;;;;5053711;28;20444;-70
2023/07/19 06:14:14;;;;;;;9.03;6.73;;;22.10;99.90;;;;;;5054749;28;20458;-70
2023/07/19 06:16:41;;;;;;;11.47;7.50;;;22.20;99.90;;;;;;5051232;28;20463;-69
2023/07/19 06:19:08;;;;;;;12.63;7.77;;;22.30;99.90;;;;;;5040192;28;20520;-70
2023/07/19 06:21:35;;;;;;;9.10;7.37;;;22.30;99.90;;;;;;5054814;28;20806;-70
2023/07/19 06:24:03;;;;;;;10.07;7.43;;;22.30;99.90;;;;;;5053578;28;20447;-71
2023/07/19 06:26:34;;;;;;;13.67;8.80;;;22.30;99.90;;;;;;5054243;28;20447;-70
2023/07/19 06:29:01;;;;;;;11.53;6.87;;;22.30;99.90;;;;;;5048392;28;20467;-72
2023/07/19 06:31:33;;;;;;;11.30;7.97;;;22.40;99.90;;;;;;5054399;28;20444;-70
2023/07/19 06:34:00;;;;;;;10.50;7.83;;;22.20;99.90;;;;;;5052067;28;20440;-70
2023/07/19 06:36:33;;;;;;;10.53;7.70;;;22.30;99.90;;;;;;5050817;28;20842;-71
2023/07/19 06:39:00;;;;;;;10.33;7.40;;;22.40;99.90;;;;;;5044361;28;20436;-70
2023/07/19 06:41:27;;;;;;;13.40;7.37;;;22.50;99.90;;;;;;5053899;28;20922;-71
2023/07/19 06:43:57;;;;;;;13.90;7.87;;;22.60;99.90;;;;;;5054025;28;20444;-70
2023/07/19 06:46:33;;;;;;;12.60;8.07;;;22.60;99.90;;;;;;5054184;28;20973;-70
2023/07/19 06:49:01;;;;;;;11.13;7.40;;;22.50;99.90;;;;;;5054117;28;20464;-70
2023/07/19 06:51:28;;;;;;;10.97;8.00;;;22.50;99.90;;;;;;5053423;28;20515;-72
2023/07/19 06:53:56;;;;;;;11.97;7.53;;;22.60;99.90;;;;;;5052900;28;20449;-70
2023/07/19 06:56:23;;;;;;;9.93;7.30;;;22.80;99.90;;;;;;5041790;28;20452;-70
2023/07/19 06:58:57;;;;;;;10.60;8.10;;;22.90;99.90;;;;;;5054490;28;20474;-70
2023/07/19 07:01:25;;;;;;;9.93;7.07;;;23.00;99.90;;;;;;5054405;28;20507;-70
2023/07/19 07:03:53;;;;;;;11.63;7.20;;;23.00;99.90;;;;;;5054325;28;20476;-70
2023/07/19 07:06:21;;;;;;;8.80;7.40;;;22.90;99.90;;;;;;5054329;28;20513;-70
2023/07/19 07:08:48;;;;;;;13.23;6.77;;;22.90;99.90;;;;;;5053610;28;20500;-70
2023/07/19 07:11:15;;;;;;;12.00;7.33;;;22.80;99.90;;;;;;5047991;28;20486;-70
2023/07/19 07:13:42;;;;;;;15.73;7.90;;;22.90;99.90;;;;;;5043480;28;21008;-70
2023/07/19 07:16:11;;;;;;;11.77;6.93;;;23.10;99.90;;;;;;5054138;28;20779;-70
2023/07/19 07:18:39;;;;;;;14.73;8.00;;;23.20;99.90;;;;;;5054069;28;20469;-70
2023/07/19 07:21:07;;;;;;;12.40;7.70;;;23.40;99.90;;;;;;5054008;28;20468;-70
2023/07/19 07:23:36;;;;;;;8.50;6.93;;;23.60;99.90;;;;;;5052968;28;20540;-70
2023/07/19 07:26:03;;;;;;;10.13;6.80;;;23.80;99.90;;;;;;5053867;28;20795;-73
2023/07/19 07:28:30;;;;;;;10.90;7.13;;;23.90;99.90;;;;;;5053678;28;20442;-71
2023/07/19 07:30:57;;;;;;;11.23;7.33;;;24.10;99.90;;;;;;5053580;28;20449;-71
2023/07/19 07:33:24;;;;;;;10.53;6.20;;;24.30;99.90;;;;;;5053649;28;20465;-71
2023/07/19 07:35:51;;;;;;;7.87;6.00;;;24.30;99.90;;;;;;5053598;28;20528;-71
2023/07/19 07:38:19;;;;;;;7.30;5.30;;;24.50;99.90;;;;;;5053739;28;20484;-71
2023/07/19 07:40:46;;;;;;;6.10;4.90;;;24.60;99.10;;;;;;5053700;28;20528;-71
2023/07/19 07:43:13;;;;;;;8.90;3.97;;;24.70;96.20;;;;;;5053036;28;20434;-71
2023/07/19 07:45:41;;;;;;;10.00;6.33;;;24.70;93.00;;;;;;5053434;28;20437;-71
2023/07/19 07:48:08;;;;;;;7.70;5.63;;;24.80;92.60;;;;;;5053448;28;20445;-71
2023/07/19 07:50:35;;;;;;;9.90;5.40;;;24.90;93.50;;;;;;5053486;28;20569;-70
2023/07/19 07:53:02;;;;;;;7.60;5.70;;;24.90;90.50;;;;;;5053064;28;20441;-71
2023/07/19 07:55:30;;;;;;;7.00;4.73;;;25.00;89.40;;;;;;5053259;28;20464;-71
2023/07/19 07:57:58;;;;;;;7.93;4.10;;;25.00;89.80;;;;;;5053139;28;20473;-71
2023/07/19 08:00:25;;;;;;;9.63;4.87;;;25.10;90.50;;;;;;5053033;28;20536;-71
2023/07/19 08:02:52;;;;;;;7.37;5.10;;;25.20;90.40;;;;;;5053039;28;20528;-72
2023/07/19 08:05:19;;;;;;;11.93;5.37;;;25.40;90.70;;;;;;5052845;28;20480;-71
2023/07/19 08:07:46;;;;;;;6.40;5.17;;;25.60;91.00;;;;;;5053282;28;20464;-70
2023/07/19 08:10:18;;;;;;;9.27;4.67;;;25.80;91.00;;;;;;5053102;28;20476;-70
2023/07/19 08:12:46;;;;;;;9.33;4.60;;;25.90;89.40;;;;;;5052889;28;20790;-70
2023/07/19 08:15:18;;;;;;;7.30;4.63;;;25.90;83.20;;;;;;5053017;28;20472;-71
2023/07/19 08:17:45;;;;;;;10.70;5.27;;;25.90;80.30;;;;;;5053082;28;20456;-71
2023/07/19 08:20:13;;;;;;;8.73;4.63;;;25.80;80.00;;;;;;5052968;28;20468;-71
2023/07/19 08:22:40;;;;;;;6.93;4.97;;;25.80;78.50;;;;;;5052787;28;20425;-71
2023/07/19 08:25:08;;;;;;;6.90;5.07;;;25.90;79.40;;;;;;5052222;28;20803;-71
2023/07/19 08:27:35;;;;;;;9.00;4.27;;;25.90;78.70;;;;;;5052102;28;20453;-71
2023/07/19 08:30:07;;;;;;;6.23;4.43;;;26.00;80.00;;;;;;5052448;28;20501;-71
2023/07/19 08:32:34;;;;;;;5.30;4.50;;;26.20;79.40;;;;;;5052765;28;20441;-71
2023/07/19 08:35:03;;;;;;;8.17;5.20;;;26.30;78.60;;;;;;5052025;28;20437;-71
2023/07/19 08:37:30;;;;;;;9.53;5.07;;;26.40;76.50;;;;;;5051642;28;20481;-71
2023/07/19 08:39:57;;;;;;;6.77;4.27;;;26.50;75.00;;;;;;5052534;28;20445;-71
2023/07/19 08:42:26;;;;;;;7.33;4.40;;;26.50;71.50;;;;;;5049849;28;20520;-71
2023/07/19 08:44:53;;;;;;;8.13;4.97;;;26.60;72.40;;;;;;5052555;28;20477;-70
2023/07/19 08:47:22;;;;;;;7.10;4.77;;;26.70;73.00;;;;;;5052744;28;20844;-70
2023/07/19 08:49:52;;;;;;;6.30;4.40;;;26.70;67.80;;;;;;5052455;28;20484;-71
2023/07/19 08:52:21;;;;;;;7.87;4.70;;;26.60;63.40;;;;;;5052231;28;20461;-71
2023/07/19 08:54:48;;;;;;;11.00;5.53;;;26.60;62.80;;;;;;5052730;28;20529;-71
2023/07/19 08:57:16;;;;;;;11.97;5.17;;;26.60;61.10;;;;;;5052381;28;20533;-72
2023/07/19 08:59:45;;;;;;;7.50;5.00;;;26.60;61.60;;;;;;5052554;28;20515;-70
2023/07/19 09:02:12;;;;;;;8.07;5.73;;;26.70;62.50;;;;;;5052738;28;20524;-71
2023/07/19 09:04:40;;;;;;;11.27;4.43;;;26.60;60.80;;;;;;5052350;28;20967;-71
2023/07/19 09:07:09;;;;;;;7.53;4.87;;;26.60;62.00;;;;;;5052538;28;20452;-71
2023/07/19 09:09:40;;;;;;;9.77;4.63;;;26.70;62.20;;;;;;5052634;28;20907;-71
2023/07/19 09:12:08;;;;;;;12.20;5.17;;;26.60;59.70;;;;;;5052612;28;20856;-71
2023/07/19 09:14:36;;;;;;;8.93;5.60;;;26.60;59.40;;;;;;5052521;28;20437;-73
2023/07/19 09:17:03;;;;;;;8.40;4.80;;;26.70;59.70;;;;;;5052663;28;20437;-71
2023/07/19 09:19:30;;;;;;;10.13;5.27;;;26.70;60.60;;;;;;5052361;28;21007;-71
2023/07/19 09:22:04;;;;;;;8.27;5.60;;;26.90;62.20;;;;;;5052127;28;20495;-71
2023/07/19 09:24:31;;;;;;;7.90;4.90;;;27.10;61.00;;;;;;5052656;28;20507;-70
2023/07/19 09:26:59;;;;;;;13.07;5.03;;;27.20;60.10;;;;;;5052236;28;20449;-71
2023/07/19 09:29:30;;;;;;;7.10;4.50;;;27.30;58.80;;;;;;5052493;28;20469;-71
2023/07/19 09:31:58;;;;;;;8.37;5.20;;;27.40;58.60;;;;;;5052520;28;20441;-71
2023/07/19 09:34:28;;;;;;;6.23;4.80;;;27.40;57.00;;;;;;5052491;28;20484;-71
2023/07/19 09:37:01;;;;;;;6.87;4.90;;;27.40;57.30;;;;;;5051924;28;20473;-71
2023/07/19 09:39:30;;;;;;;8.07;4.73;;;27.40;57.00;;;;;;5051883;28;20442;-71
2023/07/19 09:41:58;;;;;;;8.13;4.80;;;27.40;56.10;;;;;;5052006;28;20476;-71
2023/07/19 09:44:25;;;;;;;9.60;5.87;;;27.50;55.80;;;;;;5052249;28;20512;-71
2023/07/19 09:46:54;;;;;;;5.43;4.67;;;27.50;56.30;;;;;;5051595;28;20516;-71
2023/07/19 09:49:21;;;;;;;7.17;4.87;;;27.60;55.60;;;;;;5055386;28;20521;-71
2023/07/19 09:51:52;;;;;;;9.50;5.23;;;27.60;55.10;;;;;;5055463;28;20469;-71
2023/07/19 09:54:20;;;;;;;8.30;5.40;;;27.80;56.90;;;;;;5055894;28;20457;-71
2023/07/19 09:56:48;;;;;;;8.87;5.33;;;27.90;57.30;;;;;;5055712;28;20520;-71
2023/07/19 09:59:19;;;;;;;9.50;5.47;;;28.00;55.40;;;;;;5055667;28;20473;-71
2023/07/19 10:01:46;;;;;;;7.40;4.73;;;28.20;56.40;;;;;;5055729;28;20464;-71
2023/07/19 10:04:24;;;;;;;8.07;4.90;;;28.30;55.50;;;;;;5054248;28;20861;-71
2023/07/19 10:06:51;;;;;;;7.70;4.87;;;28.40;53.00;;;;;;5055434;28;20469;-71
2023/07/19 10:09:50;;;;;;;6.00;4.93;;;28.40;53.30;;;;;;5052355;28;20500;-71
2023/07/19 10:12:24;;;;;;;10.50;9.20;;;28.30;51.10;;;;;;5033188;28;20434;-71
2023/07/19 10:14:55;;;;;;;7.80;4.97;;;28.30;53.10;;;;;;5051044;28;20455;-71
2023/07/19 10:17:25;;;;;;;8.13;5.47;;;28.30;51.20;;;;;;5054922;28;20955;-72
2023/07/19 10:19:58;;;;;;;8.17;5.30;;;28.20;52.00;;;;;;5055312;28;20784;-73
2023/07/19 10:22:46;;;;;;;7.23;5.20;;;28.30;53.50;;;;;;5055087;28;20476;-71
2023/07/19 10:25:21;;;;;;;9.63;5.70;;;28.30;53.00;;;;;;5055070;28;20533;-71
2023/07/19 10:27:59;;;;;;;6.60;4.97;;;28.30;51.90;;;;;;5055090;28;20512;-71
2023/07/19 10:30:54;;;;;;;7.33;4.87;;;28.30;52.90;;;;;;5055069;28;20897;-71
2023/07/19 10:33:22;;;;;;;7.23;5.20;;;28.30;52.70;;;;;;5049624;28;20940;-72
2023/07/19 10:35:51;;;;;;;11.40;4.30;;;28.20;53.20;;;;;;5054762;28;20852;-71
2023/07/19 10:38:20;;;;;;;6.97;5.13;;;28.20;54.40;;;;;;5054981;28;20863;-71
2023/07/19 10:40:57;;;;;;;7.67;4.87;;;28.20;53.00;;;;;;5054935;28;20437;-70
2023/07/19 10:43:24;;;;;;;7.63;4.90;;;28.30;54.40;;;;;;5054492;28;20512;-71
2023/07/19 10:45:52;;;;;;;7.40;4.90;;;28.50;55.50;;;;;;5054978;28;20472;-71
2023/07/19 10:48:20;;;;;;;7.17;4.50;;;28.60;53.70;;;;;;5054724;28;20445;-71
2023/07/19 10:50:50;;;;;;;8.83;5.40;;;28.60;53.00;;;;;;5054324;28;20473;-71
2023/07/19 10:53:17;;;;;;;9.00;5.50;;;28.60;53.60;;;;;;5054411;28;20479;-71
2023/07/19 10:55:45;;;;;;;8.73;5.30;;;28.70;53.80;;;;;;5054668;28;20536;-71
2023/07/19 10:58:16;;;;;;;6.20;4.70;;;28.70;54.40;;;;;;5053867;28;20804;-71
2023/07/19 11:00:44;;;;;;;6.37;4.30;;;28.70;53.40;;;;;;5054405;28;20432;-71
2023/07/19 11:03:14;;;;;;;10.30;5.30;;;28.70;52.30;;;;;;5054299;28;20444;-71
2023/07/19 11:05:42;;;;;;;6.10;4.30;;;28.60;53.20;;;;;;5054587;28;20433;-71
2023/07/19 11:08:35;;;;;;;7.57;5.10;;;28.60;53.40;;;;;;5054391;28;20437;-71
2023/07/19 11:11:03;;;;;;;8.73;5.20;;;28.50;54.20;;;;;;5053643;28;20471;-71
2023/07/19 11:13:31;;;;;;;7.20;4.90;;;28.60;54.00;;;;;;5053559;28;20491;-71
2023/07/19 11:15:59;;;;;;;7.00;4.67;;;28.70;53.40;;;;;;5053978;28;20908;-71
2023/07/19 11:18:27;;;;;;;7.70;5.30;;;28.70;52.20;;;;;;5053746;28;20524;-72
2023/07/19 11:20:55;;;;;;;7.87;4.57;;;28.80;52.90;;;;;;5053641;28;20437;-70
2023/07/19 11:23:22;;;;;;;8.20;4.80;;;28.90;53.40;;;;;;5054139;28;20469;-70
2023/07/19 11:25:50;;;;;;;6.30;4.37;;;29.00;51.70;;;;;;5047949;28;20524;-71
2023/07/19 11:28:36;;;;;;;10.60;5.47;;;29.20;50.90;;;;;;5053627;28;20805;-71
2023/07/19 11:31:05;;;;;;;7.80;5.63;;;29.20;50.90;;;;;;5051683;28;20477;-71
2023/07/19 11:33:34;;;;;;;6.43;4.73;;;29.20;50.50;;;;;;5053398;28;20465;-71
2023/07/19 11:36:01;;;;;;;5.80;4.73;;;29.10;50.10;;;;;;5053469;28;20477;-71
2023/07/19 11:38:28;;;;;;;10.07;5.73;;;29.00;50.00;;;;;;5053277;28;20452;-71
2023/07/19 11:40:55;;;;;;;8.87;4.33;;;29.00;51.10;;;;;;5053650;28;20519;-71
2023/07/19 11:43:25;;;;;;;7.90;5.30;;;29.00;51.20;;;;;;5052893;28;20516;-72
2023/07/19 11:45:55;;;;;;;7.20;5.60;;;29.00;51.10;;;;;;5053427;28;20429;-75
2023/07/19 11:48:22;;;;;;;8.47;4.50;;;29.00;51.10;;;;;;5052869;28;20437;-71
2023/07/19 11:50:49;;;;;;;8.67;4.77;;;29.00;50.60;;;;;;5053232;28;20469;-71
2023/07/19 11:53:16;;;;;;;10.00;5.00;;;29.00;52.50;;;;;;5053648;28;20539;-70
2023/07/19 11:55:48;;;;;;;7.20;4.90;;;29.00;52.00;;;;;;5053570;28;20528;-71
2023/07/19 11:58:15;;;;;;;6.67;4.67;;;29.10;51.00;;;;;;5053469;28;20454;-70
2023/07/19 12:00:42;;;;;;;6.77;4.67;;;29.00;51.10;;;;;;5053190;28;20537;-71
2023/07/19 12:03:10;;;;;;;7.17;4.90;;;29.20;52.20;;;;;;5051427;28;20520;-70
2023/07/19 12:05:38;;;;;;;6.80;4.50;;;29.30;53.00;;;;;;5052981;28;20540;-71
2023/07/19 12:08:05;;;;;;;8.13;5.20;;;29.40;51.40;;;;;;5053353;28;20436;-71
2023/07/19 12:10:34;;;;;;;7.37;5.50;;;29.40;51.60;;;;;;5052014;28;20481;-71
2023/07/19 12:13:01;;;;;;;6.37;5.40;;;29.50;50.70;;;;;;5053356;28;20465;-71
2023/07/19 12:15:28;;;;;;;5.10;4.10;;;29.60;50.40;;;;;;5052737;28;20528;-71
2023/07/19 12:17:56;;;;;;;6.90;4.40;;;29.70;50.90;;;;;;5053249;28;20534;-70
2023/07/19 12:20:27;;;;;;;9.17;4.10;;;29.80;50.20;;;;;;5052940;28;20477;-70
2023/07/19 12:22:54;;;;;;;6.03;4.10;;;29.90;51.60;;;;;;5052868;28;20511;-71
2023/07/19 12:25:21;;;;;;;7.63;4.50;;;29.90;51.00;;;;;;5052998;28;20516;-71
2023/07/19 12:27:52;;;;;;;8.43;4.23;;;30.00;50.20;;;;;;5053066;28;20797;-70
2023/07/19 12:30:19;;;;;;;8.50;5.03;;;29.90;49.50;;;;;;5052693;28;20548;-70
2023/07/19 12:32:46;;;;;;;12.03;5.07;;;30.00;49.80;;;;;;5052619;28;20487;-71
2023/07/19 12:35:13;;;;;;;6.23;4.43;;;29.90;47.70;;;;;;5053052;28;20465;-71
2023/07/19 12:37:41;;;;;;;5.97;4.43;;;29.70;47.40;;;;;;5052988;28;20533;-71
2023/07/19 12:40:10;;;;;;;6.40;4.37;;;29.50;47.50;;;;;;5052986;28;20469;-71
2023/07/19 12:42:37;;;;;;;5.67;4.00;;;29.50;47.20;;;;;;5052885;28;20448;-70
2023/07/19 12:45:05;;;;;;;6.70;4.47;;;29.40;47.30;;;;;;5052847;28;20793;-71
2023/07/19 12:47:32;;;;;;;6.30;5.00;;;29.40;48.50;;;;;;5052903;28;20445;-70
2023/07/19 12:49:59;;;;;;;6.13;4.27;;;29.30;47.50;;;;;;5052887;28;20523;-72